LIPZ Airport Information

Runway Information
Runway 04L Length 9121 ft width 148 ft
Elevation 7 ft Threshold 308 ft Heading 42
Runway 22R Length 9121 ft Width 148 ft
Elevation 7 ft Threshold 0 ft Heading 222
Runway 04R Length 10827 ft width 148 ft
Elevation 7 ft Threshold 0 ft Heading 42
Runway 22L Length 10827 ft Width 148 ft
Elevation 7 ft Threshold 0 ft Heading 222
Airport Frequencies
Type APP Name APP Frequency 118.9 MHZ
Type ATIS Name ATIS Frequency 122.225 MHZ
Type GND Name GND Frequency 121.7 MHZ
Type TWR Name TWR Frequency 120.2 MHZ
Airport Navaids
Type VOR-DME Name Tessera Frequency 115300 KHZ
Type NDB Name Venezia Frequency 379 KHZ
Airport Weather Information & NOTAM
ADDS - METARS form results

(0806 UTC 22 May 2018)
 
METAR text: LIPZ 220750Z 35009KT 9999 SCT015 BKN060 16/14 Q1014 RERA NOSIG
Conditions at: LIPZ (VENEZIA/TESSERA , IT) observed 0750 UTC 22 May 2018
Temperature: 16.0°C (61°F)
Dewpoint: 14.0°C (57°F) [RH = 88%]
Pressure (altimeter): 29.94 inches Hg (1014.0 mb)
Winds: from the N (350 degrees) at 10 MPH (9 knots; 4.7 m/s)
Visibility: 6 or more miles (10+ km)
Ceiling: 6000 feet AGL
Clouds: scattered clouds at 1500 feet AGL
broken clouds at 6000 feet AGL
Weather: no significant weather observed at this time

METAR text: LIPZ 220720Z 36008KT 8000 RA SCT020 BKN060 16/15 Q1013 NOSIG
Conditions at: LIPZ (VENEZIA/TESSERA , IT) observed 0720 UTC 22 May 2018
Temperature: 16.0°C (61°F)
Dewpoint: 15.0°C (59°F) [RH = 94%]
Pressure (altimeter): 29.91 inches Hg (1013.0 mb)
Winds: from the N (360 degrees) at 9 MPH (8 knots; 4.2 m/s)
Visibility: 5 miles (8 km)
Ceiling: 6000 feet AGL
Clouds: scattered clouds at 2000 feet AGL
broken clouds at 6000 feet AGL
Weather: RA  (rain)